Aviation Digital Data Service (ADDS)

Output produced by METARs form (0435 UTC 14 December 2017)
found at http://aviationweather.gov/adds/metars/
 
KART 140313Z 1403/1424 VRB04KT P6SM SCT120 OVC200 
     FM140600 VRB04KT P6SM SCT050 BKN120 
     FM141400 32005KT P6SM SCT200 
     FM141800 28010KT P6SM SCT035